• Join FlightAware (Why Join?)
  • Login
  • US Flag 
04:03AM EDT


 

Airport Tracker/Info


-or-


 

Live Flight TrackerFlight Track Log ✈ SKW5162 ✈ 16-May-2013 ✈ KMCO - KIAH

Flight Track Log - Related Links

Times and Time Zones

All times are in EDT time to prevent confusion due to time zone crossing. See the SKW5162 flight status page for this flight to view local times or setup timezone preferences in your user account.

Time Position Orientation Groundspeed Altitude Reporting Facility
EDT Latitude Longitude Course Direction KTS MPH feet Rate Location/Type
04:01PM 28.3667 -81.3333 199° South 215 247 2,000  Level Orlando TRACON
04:02PM 28.3333 -81.3833 233° Southwest 245 282 4,300 2,220 Climbing Orlando TRACON
04:03PM 28.3167 -81.4667 257° West 289 333 6,500 2,460 Climbing Orlando TRACON
04:04PM 28.3167 -81.5667 270° West 286 329 9,300 2,400 Climbing Orlando TRACON
04:05PM 28.3167 -81.6500 270° West 303 349 11,400 1,680 Climbing Orlando TRACON
04:07PM 28.2958 -81.8483 263° West 338 389 14,400 1,620 Climbing Jacksonville Center
04:08PM 28.3136 -81.9611 280° West 350 403 16,200 1,920 Climbing Jacksonville Center
04:09PM 28.3308 -82.0742 280° West 362 417 18,300 2,280 Climbing Jacksonville Center
04:10PM 28.3503 -82.1803 282° West 362 417 20,800 1,800 Climbing Jacksonville Center
04:11PM 28.3739 -82.2839 285° West 355 409 22,000 1,260 Climbing Jacksonville Center
04:12PM 28.3953 -82.3969 282° West 355 409 23,400 1,380 Climbing Jacksonville Center
04:13PM 28.4353 -82.5053 293° West 360 414 24,800 1,260 Climbing Jacksonville Center
04:14PM 28.5231 -82.5783 324° Northwest 364 419 26,000 1,320 Climbing Jacksonville Center
04:15PM 28.6150 -82.6514 325° Northwest 380 437 27,500 1,320 Climbing Jacksonville Center
04:16PM 28.6986 -82.7244 323° Northwest 387 445 28,700 960 Climbing Jacksonville Center
04:17PM 28.7886 -82.8003 324° Northwest 392 451 29,500 780 Climbing Jacksonville Center
04:18PM 28.8783 -82.8808 322° Northwest 397 457 30,300 780 Climbing Jacksonville Center
04:19PM 28.9722 -82.9592 324° Northwest 403 464 31,100 900 Climbing Jacksonville Center
04:20PM 29.0661 -83.0422 322° Northwest 415 478 32,200 1,200 Climbing Jacksonville Center
04:21PM 29.1619 -83.1281 322° Northwest 415 478 33,600 1,380 Climbing Jacksonville Center
04:22PM 29.2494 -83.2044 323° Northwest 409 471 35,000 960 Climbing Jacksonville Center
04:23PM 29.3286 -83.2856 318° Northwest 398 458 35,600 540 Climbing Jacksonville Center
04:24PM 29.3992 -83.3742 312° West 385 443 36,100 540 Climbing Jacksonville Center
04:25PM 29.4739 -83.4650 313° West 385 443 36,700 660 Climbing Jacksonville Center
04:26PM 29.5444 -83.5539 312° West 385 443 37,500 600 Climbing Jacksonville Center
04:27PM 29.6172 -83.6428 313° West 385 443 38,000 240 Climbing Jacksonville Center
04:28PM 29.6897 -83.7342 312° West 385 443 38,000  Level Jacksonville Center
04:29PM 29.7642 -83.8258 313° West 391 450 38,000  Level Jacksonville Center
04:30PM 29.8322 -83.9244 309° West 391 450 38,000  Level Jacksonville Center
04:31PM 29.8750 -84.0400 293° West 391 450 38,000  Level Jacksonville Center
04:32PM 29.9178 -84.1578 293° West 391 450 38,000  Level Jacksonville Center
04:33PM 29.9586 -84.2592 295° West 391 450 38,000  Level Jacksonville Center
04:34PM 29.9989 -84.3747 292° West 391 450 38,000  Level Jacksonville Center
04:35PM 30.0436 -84.4931 294° West 396 456 38,000  Level Jacksonville Center
04:36PM 30.0881 -84.6089 294° West 396 456 38,000  Level Jacksonville Center
04:37PM 30.1303 -84.7250 293° West 396 456 38,000  Level Jacksonville Center
04:38PM 30.1722 -84.8411 293° West 396 456 38,000  Level Jacksonville Center
04:39PM 30.2144 -84.9575 293° West 396 456 38,000  Level Jacksonville Center
04:40PM 30.2561 -85.0736 293° West 396 456 38,000  Level Jacksonville Center
04:41PM 30.3000 -85.1903 294° West 396 456 38,000  Level Jacksonville Center
04:42PM 30.3417 -85.3067 293° West 396 456 38,000  Level Jacksonville Center
04:43PM 30.3833 -85.4258 292° West 396 456 38,000  Level Jacksonville Center
04:44PM 30.4247 -85.5425 292° West 396 456 38,000  Level Jacksonville Center
04:45PM 30.4681 -85.6617 293° West 396 456 38,000  Level Jacksonville Center
04:46PM 30.5094 -85.7764 293° West 396 456 38,000  Level Jacksonville Center
04:47PM 30.5522 -85.9103 290° West 396 456 38,000  Level Jacksonville Center
04:48PM 30.5658 -86.0361 277° West 401 461 38,000  Level Jacksonville Center
04:49PM 30.5733 -86.1617 274° West 401 461 38,000  Level Jacksonville Center
04:50PM 30.5825 -86.2900 275° West 396 456 38,000  Level Jacksonville Center
04:51PM 30.5958 -86.4111 277° West 396 456 38,000  Level Jacksonville Center
04:52PM 30.6025 -86.5392 273° West 396 456 38,000  Level Jacksonville Center
04:53PM 30.6117 -86.6625 275° West 396 456 38,000  Level Jacksonville Center
04:54PM 30.6222 -86.7908 275° West 396 456 38,000  Level Jacksonville Center
04:55PM 30.6311 -86.9144 275° West 396 456 38,000  Level Jacksonville Center
04:56PM 30.6378 -87.0258 274° West 391 450 38,000  Level Jacksonville Center
04:57PM 30.6464 -87.1492 275° West 391 450 38,000  Level Jacksonville Center
04:58PM 30.6625 -87.3692 275° West 391 450 38,000  Level Houston Center
04:59PM 30.6700 -87.4958 274° West 393 452 38,000  Level Houston Center
05:00PM 30.6797 -87.6233 275° West 395 455 38,000  Level Houston Center
05:01PM 30.6878 -87.7614 274° West 397 457 38,000  Level Houston Center
05:02PM 30.6953 -87.8892 274° West 398 458 38,000  Level Houston Center
05:04PM 30.7053 -88.0411 274° West 394 453 38,000  Level Houston Center
05:05PM 30.7119 -88.1672 274° West 393 452 38,000  Level Houston Center
05:06PM 30.7197 -88.2928 274° West 391 450 38,000  Level Houston Center
05:07PM 30.7050 -88.4169 262° West 392 451 38,000  Level Houston Center
05:08PM 30.6658 -88.5311 248° West 391 450 38,000  Level Houston Center
05:09PM 30.6197 -88.6736 249° West 392 451 38,000  Level Houston Center
05:10PM 30.5861 -88.7936 252° West 391 450 38,000  Level Houston Center
05:11PM 30.5503 -88.9111 251° West 388 447 38,000  Level Houston Center
05:12PM 30.5164 -89.0311 252° West 386 444 38,000  Level Houston Center
05:13PM 30.4819 -89.1500 251° West 388 447 38,000  Level Houston Center
05:14PM 30.4472 -89.2678 251° West 388 447 38,000  Level Houston Center
05:15PM 30.4053 -89.4100 251° West 389 448 38,000  Level Houston Center
05:16PM 30.3708 -89.5275 251° West 387 445 38,000  Level Houston Center
05:17PM 30.3353 -89.6447 251° West 393 452 38,000  Level Houston Center
05:18PM 30.2972 -89.7608 249° West 391 450 38,000  Level Houston Center
05:19PM 30.2600 -89.8917 252° West 392 451 38,000  Level Houston Center
05:20PM 30.2261 -90.0089 252° West 385 443 38,000  Level Houston Center
05:21PM 30.1908 -90.1253 251° West 385 443 38,000  Level Houston Center
05:22PM 30.1550 -90.2414 250° West 386 444 38,000  Level Houston Center
05:23PM 30.1114 -90.3822 250° West 389 448 38,000  Level Houston Center
05:24PM 30.0767 -90.4983 251° West 386 444 38,000  Level Houston Center
05:25PM 30.0397 -90.6144 250° West 387 445 38,000  Level Houston Center
05:26PM 30.0033 -90.7303 250° West 386 444 38,000  Level Houston Center
05:27PM 29.9678 -90.8467 251° West 385 443 38,000  Level Houston Center
05:28PM 29.9322 -90.9633 251° West 386 444 38,000  Level Houston Center
05:29PM 29.8878 -91.1031 250° West 388 447 38,000  Level Houston Center
05:30PM 29.8528 -91.2192 251° West 386 444 38,000  Level Houston Center
05:31PM 29.8147 -91.3350 249° West 386 444 38,000  Level Houston Center
05:32PM 29.7778 -91.4511 250° West 388 447 38,000  Level Houston Center
05:34PM 29.7411 -91.5678 250° West 388 447 38,000  Level Houston Center
05:35PM 29.7047 -91.6833 250° West 387 445 38,000  Level Houston Center
05:36PM 29.6667 -91.8050 250° West 388 447 38,000  Level Houston Center
05:37PM 29.6217 -91.9444 250° West 388 447 38,000  Level Houston Center
05:38PM 29.5847 -92.0608 250° West 387 445 38,000  Level Houston Center
05:39PM 29.5464 -92.1775 249° West 391 450 38,000  Level Houston Center
05:40PM 29.5092 -92.2931 250° West 388 447 38,000  Level Houston Center
05:41PM 29.4731 -92.4078 250° West 383 441 38,000  Level Houston Center
05:42PM 29.4575 -92.5228 261° West 367 422 38,000  Level Houston Center
05:43PM 29.4650 -92.6608 274° West 360 414 38,000  Level Houston Center
05:44PM 29.4700 -92.7767 273° West 362 417 38,000  Level Houston Center
05:45PM 29.4756 -92.8933 273° West 366 421 38,000 -720 Level Houston Center
05:46PM 29.4808 -93.0114 273° West 369 425 36,600 -1,800 Descending Houston Center
05:47PM 29.4858 -93.1286 273° West 368 423 34,400 -2,160 Descending Houston Center
05:49PM 29.4519 -93.3783 261° West 371 427 29,900 -2,160 Descending Houston Center
05:50PM 29.4414 -93.4936 264° West 375 432 27,800 -2,040 Descending Houston Center
05:51PM 29.4653 -93.6089 283° West 371 427 25,700 -2,040 Descending Houston Center
05:52PM 29.4853 -93.7253 281° West 371 427 23,600 -2,040 Descending Houston Center
05:53PM 29.5072 -93.8403 282° West 370 426 21,500 -2,040 Descending Houston Center
05:54PM 29.5192 -93.9503 277° West 352 405 19,500 -2,160 Descending Houston Center
05:55PM 29.5208 -94.0031 272° West 339 390 18,600 -2,280 Descending Houston Center
05:55PM 29.5233 -94.0808 272° West 342 394 17,200 -1,980 Descending Houston Center
05:56PM 29.5253 -94.1517 272° West 340 391 16,000 -1,560 Descending Houston Center
05:56PM 29.5272 -94.1794 275° West 339 390 15,600 -1,680 Descending Houston Center
05:57PM 29.5297 -94.2567 272° West 336 387 14,300 -1,620 Descending Houston Center
05:57PM 29.5317 -94.2858 274° West 336 387 13,900 -1,500 Descending Houston Center
05:58PM 29.5397 -94.3564 277° West 326 375 12,900 -1,260 Descending Houston Center
05:58PM 29.5506 -94.3842 294° West 319 367 12,600 -1,260 Descending Houston Center
05:59PM 29.5783 -94.4500 296° West 309 356 11,600 -1,860 Descending Houston Center
05:59PM 29.5958 -94.4908 296° West 310 357 10,700 -1,560 Descending Houston Center
06:00PM 29.6194 -94.5481 295° West 288 331 9,900 -1,200 Descending Houston Center
06:00PM 29.6319 -94.5731 300° West 295 339 9,500 -1,680 Descending Houston Center
06:01PM 29.6522 -94.6256 294° West 271 312 8,200 -1,860 Descending Houston Center
06:01PM 29.6639 -94.6486 300° West 269 310 7,600 -1,800 Descending Houston Center
06:02PM 29.6847 -94.7008 295° West 265 305 6,400 -1,560 Descending Houston Center
06:03PM 29.6958 -94.7242 299° West 264 304 6,000 -420 Descending Houston Center
06:03PM 29.7197 -94.7783 297° West 276 318 6,000  Level Houston Center
06:04PM 29.7292 -94.8036 293° West 273 314 6,000  Level Houston Center
06:04PM 29.7531 -94.8633 295° West 272 313 6,000  Level Houston Center
06:05PM 29.7694 -94.8953 301° West 271 312 6,000  Level Houston Center
06:05PM 29.7828 -94.9342 292° West 266 306 6,000  Level Houston Center
06:06PM 29.8008 -94.9711 299° West 267 307 6,000  Level Houston Center
06:06PM 29.8153 -95.0097 293° West 265 305 6,000  Level Houston Center
06:07PM 29.8322 -95.0469 298° West 266 306 6,000  Level Houston Center
06:07PM 29.8531 -95.0989 295° West 265 305 6,000  Level Houston Center
06:08PM 29.8642 -95.1231 298° West 267 307 6,000  Level Houston Center
06:08PM 29.8828 -95.1700 295° West 267 307 6,000  Level Houston Center
06:09PM 29.8956 -95.1994 297° West 267 307 6,000  Level Houston Center
06:09PM 29.8986 -95.2500 274° West 259 298 6,000 60 Level Houston Center
06:10PM 29.9000 -95.2978 272° West 258 297 6,100  Climbing Houston Center
06:10PM 29.9000 -95.3342 270° West 258 297 6,000  Descending Houston Center
06:11PM 29.9008 -95.3803 271° West 259 298 6,100  Climbing Houston Center
06:11PM 29.8992 -95.4186 267° West 256 295 6,000 -120 Descending Houston Center
06:12PM 29.9008 -95.4606 273° West 255 293 6,000  Level Houston Center
06:12PM 29.9008 -95.5053 270° West 254 292 6,000  Level Houston Center
06:13PM 29.9006 -95.5417 270° West 255 293 6,000  Level Houston Center
06:13PM 29.8997 -95.5872 269° West 253 291 6,000  Level Houston Center
06:14PM 29.9014 -95.6217 273° West 252 290 6,000  Level Houston Center
06:14PM 29.9008 -95.6689 269° West 252 290 6,000  Level Houston Center
06:15PM 29.9022 -95.7181 272° West 251 289 6,000 -420 Level Houston Center
06:15PM 29.9194 -95.7367 317° Northwest 237 273 5,600 -960 Descending Houston Center
06:16PM 29.9631 -95.7414 355° North 255 293 5,000 -600 Descending Houston Center
06:16PM 29.9900 -95.7283 23° Northeast 248 285 5,000  Level Houston Center
06:17PM 29.9944 -95.6919 82° East 248 285 5,000 -300 Level Houston Center
06:17PM 29.9914 -95.6486 95° East 227 261 4,700 -780 Descending Houston Center
06:18PM 29.9925 -95.6169 88° East 225 259 4,200 -780 Descending Houston Center
06:18PM 29.9933 -95.5761 89° East 210 242 3,900 -720 Descending Houston Center
06:19PM 29.9933 -95.5478 90° East 217 250 3,500 -1,320 Descending Houston Center
06:19PM 29.9911 -95.5064 94° East 215 247 2,600 -1,500 Descending Houston Center
06:20PM 29.9939 -95.4675 85° East 213 245 2,000 -1,020 Descending Houston Center
06:20PM 29.9922 -95.4483 96° East 190 219 1,700 -780 Descending Houston Center
06:21PM 29.9939 -95.4183 86° East 177 204 1,200 -720 Descending Houston Center
06:21PM 29.9925 -95.4050 97° East 133 153 1,000 -600 Descending Houston Center
06:22PM 29.9944 -95.3747 86° East 149 171 600 -600 Descending Houston Center